createdAt,value
2019-05-10T00:00:09.363Z,10.58
2019-05-10T00:02:56.569Z,17.92
2019-05-10T00:05:44.039Z,16.17
2019-05-10T00:08:31.201Z,10.48
2019-05-10T00:11:08.122Z,11.80
2019-05-10T00:13:50.812Z,12.98
2019-05-10T00:16:19.544Z,14.10
2019-05-10T00:18:48.282Z,15.60
2019-05-10T00:21:16.997Z,12.53
2019-05-10T00:23:45.729Z,16.23
2019-05-10T00:26:14.454Z,20.82
2019-05-10T00:28:43.178Z,14.90
2019-05-10T00:31:11.931Z,10.32
2019-05-10T00:33:40.627Z,7.20
2019-05-10T00:36:09.449Z,8.05
2019-05-10T00:38:38.180Z,8.90
2019-05-10T00:41:06.893Z,13.80
2019-05-10T00:43:35.628Z,14.60
2019-05-10T00:46:04.366Z,9.10
2019-05-10T00:48:33.064Z,10.28
2019-05-10T00:51:01.800Z,9.05
2019-05-10T00:53:30.572Z,11.65
2019-05-10T00:55:59.236Z,7.12
2019-05-10T00:58:28.035Z,9.33
2019-05-10T01:00:56.761Z,9.68
2019-05-10T01:03:25.573Z,11.73
2019-05-10T01:05:54.269Z,7.60
2019-05-10T01:08:23.011Z,9.63
2019-05-10T01:10:51.728Z,8.88
2019-05-10T01:13:20.459Z,7.87
2019-05-10T01:15:49.192Z,8.00
2019-05-10T01:18:17.913Z,7.40
2019-05-10T01:20:46.724Z,8.10
2019-05-10T01:23:15.457Z,15.20
2019-05-10T01:25:44.178Z,8.73
2019-05-10T01:28:12.908Z,8.78
2019-05-10T01:30:41.897Z,12.30
2019-05-10T01:33:10.625Z,9.83
2019-05-10T01:35:39.366Z,14.87
2019-05-10T01:38:08.078Z,12.53
2019-05-10T01:40:36.849Z,7.75
2019-05-10T01:43:05.564Z,11.95
2019-05-10T01:45:34.293Z,10.13
2019-05-10T01:48:03.004Z,8.00
2019-05-10T01:50:31.743Z,13.68
2019-05-10T01:53:00.462Z,9.40
2019-05-10T01:55:29.194Z,13.08
2019-05-10T01:57:57.997Z,9.05
2019-05-10T02:00:26.732Z,11.75
2019-05-10T02:02:55.457Z,8.30
2019-05-10T02:05:24.180Z,15.05
2019-05-10T02:07:52.915Z,10.98
2019-05-10T02:10:21.692Z,9.25
2019-05-10T02:12:50.458Z,10.60
2019-05-10T02:15:19.288Z,7.00
2019-05-10T02:17:48.014Z,11.60
2019-05-10T02:20:17.005Z,9.75
2019-05-10T02:22:45.717Z,12.93
2019-05-10T02:25:14.591Z,14.65
2019-05-10T02:27:43.296Z,9.93
2019-05-10T02:30:12.358Z,8.25
2019-05-10T02:32:41.084Z,12.95
2019-05-10T02:35:11.266Z,13.58
2019-05-10T02:37:40.014Z,10.72
2019-05-10T02:40:08.830Z,9.18
2019-05-10T02:42:37.660Z,10.03
2019-05-10T02:45:08.316Z,12.20
2019-05-10T02:47:37.196Z,10.53
2019-05-10T02:50:07.595Z,12.13
2019-05-10T02:52:36.365Z,10.45
2019-05-10T02:55:07.383Z,10.28
2019-05-10T02:57:37.420Z,12.53
2019-05-10T03:00:08.989Z,9.53
2019-05-10T03:02:38.623Z,8.85
2019-05-10T03:05:08.038Z,12.47
2019-05-10T03:07:39.881Z,10.63
2019-05-10T03:10:10.955Z,12.50
2019-05-10T03:12:41.620Z,11.38
2019-05-10T03:15:13.427Z,12.93
2019-05-10T03:17:42.435Z,9.45
2019-05-10T03:20:12.111Z,10.28
2019-05-10T03:22:44.386Z,10.95
2019-05-10T03:25:14.366Z,12.23
2019-05-10T03:27:43.362Z,9.43
2019-05-10T03:30:12.541Z,17.10
2019-05-10T03:32:41.275Z,8.45
2019-05-10T03:35:10.998Z,9.35
2019-05-10T03:37:40.167Z,11.12
2019-05-10T03:40:10.309Z,12.45
2019-05-10T03:42:39.028Z,18.25
2019-05-10T03:45:08.268Z,14.25
2019-05-10T03:47:37.060Z,11.15
2019-05-10T03:50:09.121Z,9.13
2019-05-10T03:52:37.847Z,9.63
2019-05-10T03:55:07.573Z,11.03
2019-05-10T03:57:36.292Z,9.98
2019-05-10T04:00:07.966Z,19.85
2019-05-10T04:05:06.266Z,18.57
2019-05-10T04:07:34.995Z,15.13
2019-05-10T04:10:08.558Z,9.25
2019-05-10T04:12:37.403Z,20.08
2019-05-10T04:15:10.425Z,18.45
2019-05-10T04:17:39.169Z,13.28
2019-05-10T04:20:08.400Z,10.48
2019-05-10T04:22:37.217Z,18.07
2019-05-10T04:25:06.441Z,19.37
2019-05-10T04:27:38.678Z,8.18
2019-05-10T04:30:07.999Z,22.32
2019-05-10T04:32:36.756Z,13.25
2019-05-10T04:35:06.653Z,17.50
2019-05-10T04:37:35.380Z,13.05
2019-05-10T04:40:07.644Z,25.23
2019-05-10T04:42:36.376Z,15.43
2019-05-10T04:45:06.966Z,10.00
2019-05-10T04:47:35.698Z,13.43
2019-05-10T04:50:05.090Z,10.35
2019-05-10T04:52:34.967Z,17.42
2019-05-10T04:55:04.722Z,17.40
2019-05-10T04:57:49.264Z,13.13
2019-05-10T05:00:06.161Z,12.82
2019-05-10T05:02:35.017Z,60.60
2019-05-10T05:05:05.394Z,9.95
2019-05-10T05:07:34.116Z,20.30
2019-05-10T05:10:02.970Z,12.47
2019-05-10T05:12:31.757Z,9.10
2019-05-10T05:15:00.533Z,22.52
2019-05-10T05:17:29.213Z,20.55
2019-05-10T05:19:58.053Z,15.68
2019-05-10T05:22:26.769Z,13.43
2019-05-10T05:25:01.303Z,11.73
2019-05-10T05:27:25.872Z,12.13
2019-05-10T05:29:54.590Z,17.50
2019-05-10T05:32:23.318Z,21.75
2019-05-10T05:34:52.097Z,20.00
2019-05-10T05:37:20.913Z,13.55
2019-05-10T05:39:49.620Z,14.07
2019-05-10T05:42:22.399Z,19.87
2019-05-10T05:44:48.705Z,14.25
2019-05-10T05:47:17.473Z,10.23
2019-05-10T05:49:46.215Z,14.98
2019-05-10T05:52:15.613Z,11.50
2019-05-10T05:54:44.345Z,18.55
2019-05-10T05:57:13.088Z,14.30
2019-05-10T05:59:42.160Z,12.78
2019-05-10T06:02:10.890Z,15.23
2019-05-10T06:04:40.913Z,11.83
2019-05-10T06:07:10.047Z,15.03
2019-05-10T06:09:39.400Z,16.10
2019-05-10T06:12:12.620Z,11.33
2019-05-10T06:14:43.328Z,12.68
2019-05-10T06:17:10.040Z,11.85
2019-05-10T06:19:38.856Z,9.70
2019-05-10T06:22:07.543Z,10.38
2019-05-10T06:24:36.253Z,7.80
2019-05-10T06:27:05.163Z,11.28
2019-05-10T06:29:34.013Z,13.65
2019-05-10T06:32:02.732Z,9.70
2019-05-10T06:34:37.936Z,9.90
2019-05-10T06:37:02.043Z,10.10
2019-05-10T06:39:30.770Z,10.82
2019-05-10T06:41:59.468Z,10.03
2019-05-10T06:44:31.285Z,13.25
2019-05-10T06:47:02.016Z,10.75
2019-05-10T06:49:29.185Z,9.90
2019-05-10T06:51:57.908Z,9.33
2019-05-10T06:54:26.678Z,12.28
2019-05-10T06:56:55.440Z,16.17
2019-05-10T06:59:24.981Z,14.20
2019-05-10T07:01:54.552Z,8.85
2019-05-10T07:04:23.260Z,13.35
2019-05-10T07:06:51.999Z,14.20
2019-05-10T07:09:20.736Z,15.55
2019-05-10T07:11:49.440Z,8.73
2019-05-10T07:14:18.153Z,11.55
2019-05-10T07:16:46.959Z,12.63
2019-05-10T07:19:15.756Z,9.75
2019-05-10T07:21:50.661Z,13.22
2019-05-10T07:24:18.370Z,18.73
2019-05-10T07:26:45.374Z,14.15
2019-05-10T07:29:29.130Z,12.23
2019-05-10T07:31:44.507Z,17.17
2019-05-10T07:34:15.617Z,15.13
2019-05-10T07:36:43.676Z,10.58
2019-05-10T07:39:12.466Z,18.55
2019-05-10T07:41:41.239Z,12.18
2019-05-10T07:44:10.567Z,10.00
2019-05-10T07:46:40.074Z,9.15
2019-05-10T07:49:09.870Z,12.15
2019-05-10T07:51:38.613Z,7.85
2019-05-10T07:54:07.382Z,9.58
2019-05-10T07:56:39.081Z,11.83
2019-05-10T07:59:06.576Z,13.25
2019-05-10T08:01:35.300Z,15.90
2019-05-10T08:04:04.016Z,15.88
2019-05-10T08:06:40.211Z,8.63
2019-05-10T08:09:07.063Z,24.80
2019-05-10T08:11:35.080Z,13.35
2019-05-10T08:14:06.105Z,14.87
2019-05-10T08:16:34.291Z,14.38
2019-05-10T08:19:03.015Z,20.60
2019-05-10T08:21:32.237Z,13.32
2019-05-10T08:24:05.175Z,9.58
2019-05-10T08:26:33.117Z,15.63
2019-05-10T08:29:02.165Z,13.08
2019-05-10T08:31:39.913Z,13.03
2019-05-10T08:34:02.247Z,14.25
2019-05-10T08:36:32.234Z,14.55
2019-05-10T08:39:10.033Z,14.20
2019-05-10T08:41:32.570Z,13.62
2019-05-10T08:44:04.793Z,8.98
2019-05-10T08:46:40.048Z,12.33
2019-05-10T08:49:02.448Z,9.45
2019-05-10T08:51:32.322Z,14.55
2019-05-10T08:54:01.914Z,11.68
2019-05-10T08:56:33.068Z,14.60
2019-05-10T08:59:03.821Z,7.15
2019-05-10T09:01:44.700Z,10.98
2019-05-10T09:04:06.891Z,19.45
2019-05-10T09:06:34.000Z,15.43
2019-05-10T09:09:08.390Z,12.58
2019-05-10T09:11:35.285Z,26.55
2019-05-10T09:14:04.180Z,17.37
2019-05-10T09:16:39.310Z,13.50
2019-05-10T09:19:04.539Z,11.10
2019-05-10T09:21:33.236Z,13.40
2019-05-10T09:24:06.249Z,10.35
2019-05-10T09:26:32.397Z,11.22
2019-05-10T09:29:01.756Z,11.57
2019-05-10T09:31:32.642Z,8.78
2019-05-10T09:34:02.456Z,12.53
2019-05-10T09:36:36.003Z,19.00
2019-05-10T09:39:03.431Z,10.97
2019-05-10T09:41:33.782Z,10.93
2019-05-10T09:44:03.111Z,11.70
2019-05-10T09:46:32.502Z,20.55
2019-05-10T09:49:13.829Z,18.07
2019-05-10T09:51:33.079Z,13.15
2019-05-10T09:54:02.016Z,7.10
2019-05-10T09:56:32.779Z,13.78
2019-05-10T09:59:01.258Z,8.05
2019-05-10T10:01:30.082Z,10.63
2019-05-10T10:04:02.002Z,10.35
2019-05-10T10:06:29.856Z,12.80
2019-05-10T10:09:00.968Z,8.98
2019-05-10T10:11:29.243Z,11.97
2019-05-10T10:14:00.004Z,10.85
2019-05-10T10:16:28.425Z,10.58
2019-05-10T10:18:57.151Z,12.20
2019-05-10T10:21:35.040Z,17.30
2019-05-10T10:23:57.413Z,7.60
2019-05-10T10:26:26.913Z,13.28
2019-05-10T10:28:57.841Z,10.93
2019-05-10T10:31:32.589Z,19.37
2019-05-10T10:34:00.381Z,9.53
2019-05-10T10:36:27.564Z,8.65
2019-05-10T10:38:56.574Z,14.45
2019-05-10T10:41:29.723Z,12.85
2019-05-10T10:43:58.103Z,6.33
2019-05-10T10:46:28.002Z,12.30
2019-05-10T10:48:56.678Z,7.85
2019-05-10T10:51:26.563Z,7.75
2019-05-10T10:53:58.103Z,13.60
2019-05-10T10:56:27.671Z,12.30
2019-05-10T10:58:58.173Z,7.65
2019-05-10T11:01:37.975Z,12.45
2019-05-10T11:03:57.461Z,12.03
2019-05-10T11:06:26.180Z,12.43
2019-05-10T11:08:54.900Z,8.90
2019-05-10T11:11:23.648Z,13.38
2019-05-10T11:14:00.552Z,9.08
2019-05-10T11:16:22.768Z,6.90
2019-05-10T11:18:52.061Z,9.00
2019-05-10T11:21:23.470Z,8.93
2019-05-10T11:23:51.301Z,7.90
2019-05-10T11:26:21.756Z,9.53
2019-05-10T11:28:51.427Z,8.55
2019-05-10T11:31:21.380Z,6.08
2019-05-10T11:33:53.751Z,8.48
2019-05-10T11:36:21.135Z,10.53
2019-05-10T11:38:56.493Z,20.17
2019-05-10T11:41:23.810Z,11.73
2019-05-10T11:43:50.786Z,13.22
2019-05-10T11:46:20.912Z,13.35
2019-05-10T11:48:50.972Z,17.37
2019-05-10T11:51:21.117Z,17.70
2019-05-10T11:53:55.371Z,14.43
2019-05-10T11:56:26.854Z,18.48
2019-05-10T11:59:03.773Z,13.93
2019-05-10T12:01:22.208Z,11.00
2019-05-10T12:03:51.239Z,13.40
2019-05-10T12:06:21.387Z,13.03
2019-05-10T12:08:56.999Z,16.90
2019-05-10T12:11:29.406Z,13.03
2019-05-10T12:13:52.854Z,11.48
2019-05-10T12:16:21.620Z,11.00
2019-05-10T12:19:05.397Z,12.47
2019-05-10T12:21:21.713Z,9.18
2019-05-10T12:23:54.943Z,13.93
2019-05-10T12:28:51.399Z,18.82
2019-05-10T12:31:21.023Z,10.23
2019-05-10T12:33:51.225Z,13.40
2019-05-10T12:36:26.263Z,11.48
2019-05-10T12:38:50.378Z,11.38
2019-05-10T12:41:23.208Z,17.37
2019-05-10T12:43:51.707Z,11.22
2019-05-10T12:46:20.659Z,14.10
2019-05-10T12:48:51.690Z,11.35
2019-05-10T12:51:21.149Z,20.48
2019-05-10T12:53:52.167Z,13.48
2019-05-10T12:56:20.676Z,9.85
2019-05-10T12:58:56.830Z,14.05
2019-05-10T13:01:19.735Z,11.65
2019-05-10T13:03:50.159Z,9.18
2019-05-10T13:06:19.809Z,16.62
2019-05-10T13:08:48.750Z,11.20
2019-05-10T13:11:19.194Z,9.35
2019-05-10T13:13:48.088Z,17.25
2019-05-10T13:16:16.884Z,18.32
2019-05-10T13:18:51.712Z,11.20
2019-05-10T13:21:21.030Z,7.80
2019-05-10T13:23:46.525Z,14.13
2019-05-10T13:26:15.398Z,10.20
2019-05-10T13:28:44.165Z,7.60
2019-05-10T13:31:15.123Z,10.08
2019-05-10T13:33:44.360Z,14.35
2019-05-10T13:36:13.413Z,15.55
2019-05-10T13:38:46.211Z,9.18
2019-05-10T13:41:17.976Z,10.75
2019-05-10T13:43:45.605Z,17.57
2019-05-10T13:46:15.278Z,9.03
2019-05-10T13:48:44.016Z,11.60
2019-05-10T13:51:12.745Z,10.43
2019-05-10T13:53:41.593Z,13.85
2019-05-10T13:56:10.382Z,11.50
2019-05-10T13:58:39.266Z,8.60
2019-05-10T14:01:13.083Z,8.58
2019-05-10T14:03:44.378Z,7.85
2019-05-10T14:06:08.848Z,15.58
2019-05-10T14:08:42.982Z,14.23
2019-05-10T14:11:07.949Z,12.20
2019-05-10T14:13:41.477Z,8.70
2019-05-10T14:16:07.652Z,10.95
2019-05-10T14:18:36.478Z,7.10
2019-05-10T14:21:05.348Z,12.82
2019-05-10T14:23:35.115Z,11.57
2019-05-10T14:26:09.406Z,19.02
2019-05-10T14:28:34.726Z,16.17
2019-05-10T14:31:03.452Z,11.68
2019-05-10T14:33:32.264Z,17.10
2019-05-10T14:36:03.166Z,8.33
2019-05-10T14:38:31.516Z,12.50
2019-05-10T14:41:04.013Z,14.65
2019-05-10T14:43:31.042Z,15.93
2019-05-10T14:45:59.752Z,17.95
2019-05-10T14:48:30.643Z,16.90
2019-05-10T14:51:03.332Z,8.55
2019-05-10T14:53:29.460Z,10.08
2019-05-10T14:55:58.190Z,14.05
2019-05-10T14:58:26.964Z,15.95
2019-05-10T15:00:55.856Z,9.68
2019-05-10T15:03:24.719Z,10.13
2019-05-10T15:05:55.525Z,8.70
2019-05-10T15:08:23.813Z,11.03
2019-05-10T15:10:52.581Z,10.05
2019-05-10T15:13:25.521Z,14.40
2019-05-10T15:15:51.748Z,12.85
2019-05-10T15:18:20.881Z,12.00
2019-05-10T15:20:51.881Z,11.88
2019-05-10T15:23:20.686Z,10.53
2019-05-10T15:25:57.112Z,24.20
2019-05-10T15:28:22.052Z,7.03
2019-05-10T15:30:53.088Z,10.15
2019-05-10T15:33:21.857Z,11.73
2019-05-10T15:35:51.862Z,11.73
2019-05-10T15:38:21.057Z,13.35
2019-05-10T15:40:49.917Z,8.55
2019-05-10T15:43:19.069Z,11.30
2019-05-10T15:45:52.476Z,12.78
2019-05-10T15:48:20.724Z,8.05
2019-05-10T15:50:50.151Z,16.48
2019-05-10T15:53:25.322Z,12.65
2019-05-10T15:55:50.411Z,16.62
2019-05-10T15:58:20.385Z,13.58
2019-05-10T16:00:49.203Z,12.15
2019-05-10T16:03:17.977Z,10.43
2019-05-10T16:06:00.011Z,10.85
2019-05-10T16:08:17.809Z,15.75
2019-05-10T16:10:46.539Z,9.18
2019-05-10T16:13:23.348Z,20.30
2019-05-10T16:15:51.580Z,7.83
2019-05-10T16:18:18.502Z,16.10
2019-05-10T16:20:47.215Z,13.22
2019-05-10T16:23:16.105Z,13.10
2019-05-10T16:25:48.180Z,12.75
2019-05-10T16:28:20.111Z,12.98
2019-05-10T16:30:48.205Z,9.58
2019-05-10T16:33:18.225Z,8.88
2019-05-10T16:35:49.745Z,11.55
2019-05-10T16:38:17.536Z,13.80
2019-05-10T16:40:57.400Z,9.53
2019-05-10T16:43:24.001Z,6.33
2019-05-10T16:45:47.062Z,17.77
2019-05-10T16:48:16.495Z,9.30
2019-05-10T16:50:46.977Z,21.68
2019-05-10T16:53:16.416Z,17.27
2019-05-10T16:55:45.214Z,11.03
2019-05-10T16:58:17.906Z,13.55
2019-05-10T17:00:46.662Z,12.90
2019-05-10T17:03:18.456Z,10.40
2019-05-10T17:05:53.422Z,13.13
2019-05-10T17:08:19.234Z,12.75
2019-05-10T17:10:47.985Z,17.75
2019-05-10T17:13:16.734Z,22.20
2019-05-10T17:15:45.588Z,15.60
2019-05-10T17:18:17.433Z,13.95
2019-05-10T17:20:50.736Z,12.28
2019-05-10T17:23:18.199Z,11.08
2019-05-10T17:28:15.061Z,13.68
2019-05-10T17:30:44.985Z,15.65
2019-05-10T17:33:15.885Z,14.85
2019-05-10T17:35:44.629Z,12.35
2019-05-10T17:38:14.256Z,9.73
2019-05-10T17:40:47.966Z,14.13
2019-05-10T17:43:20.784Z,14.45
2019-05-10T17:45:45.585Z,13.38
2019-05-10T17:48:14.308Z,17.48
2019-05-10T17:50:45.755Z,20.50
2019-05-10T17:53:14.803Z,20.92
2019-05-10T17:55:49.373Z,16.82
2019-05-10T17:58:17.152Z,15.60
2019-05-10T18:00:46.978Z,16.73
2019-05-10T18:03:15.718Z,16.57
2019-05-10T18:05:52.793Z,16.12
2019-05-10T18:08:18.754Z,18.82
2019-05-10T18:10:47.488Z,30.17
2019-05-10T18:13:16.788Z,27.50
2019-05-10T18:15:45.882Z,19.57
2019-05-10T18:18:14.657Z,20.48
2019-05-10T18:20:44.503Z,21.77
2019-05-10T18:23:21.180Z,14.98
2019-05-10T18:25:45.583Z,20.35
2019-05-10T18:28:17.759Z,17.73
2019-05-10T18:30:45.294Z,21.42
2019-05-10T18:33:14.184Z,37.70
2019-05-10T18:35:47.369Z,18.50
2019-05-10T18:38:13.518Z,31.62
2019-05-10T18:40:42.273Z,18.65
2019-05-10T18:43:11.071Z,19.00
2019-05-10T18:45:41.265Z,19.25
2019-05-10T18:48:09.975Z,33.83
2019-05-10T18:50:39.785Z,21.27
2019-05-10T18:53:11.729Z,21.52
2019-05-10T18:55:41.901Z,20.55
2019-05-10T18:58:10.622Z,23.25
2019-05-10T19:00:41.421Z,26.37
2019-05-10T19:03:11.373Z,20.17
2019-05-10T19:05:40.110Z,22.90
2019-05-10T19:08:08.873Z,21.00
2019-05-10T19:10:37.605Z,23.02
2019-05-10T19:13:06.681Z,16.95
2019-05-10T19:15:35.822Z,18.05
2019-05-10T19:18:04.719Z,15.58
2019-05-10T19:20:33.735Z,26.65
2019-05-10T19:23:05.609Z,13.15
2019-05-10T19:25:37.535Z,19.77
2019-05-10T19:28:05.052Z,25.02
2019-05-10T19:30:35.327Z,18.17
2019-05-10T19:33:04.060Z,32.13
2019-05-10T19:35:35.633Z,20.80
2019-05-10T19:38:03.364Z,26.87
2019-05-10T19:40:32.093Z,23.02
2019-05-10T19:43:00.901Z,25.70
2019-05-10T19:45:31.344Z,31.90
2019-05-10T19:48:00.196Z,29.63
2019-05-10T19:50:33.177Z,29.57
2019-05-10T19:53:03.967Z,26.80
2019-05-10T19:55:29.813Z,29.55
2019-05-10T19:57:58.537Z,31.73
2019-05-10T20:00:27.332Z,29.82
2019-05-10T20:02:56.059Z,28.12
2019-05-10T20:05:24.795Z,28.12
2019-05-10T20:07:53.516Z,29.60
2019-05-10T20:10:24.053Z,33.33
2019-05-10T20:12:52.839Z,35.78
2019-05-10T20:15:21.584Z,26.97
2019-05-10T20:17:51.735Z,39.55
2019-05-10T20:20:20.719Z,31.87
2019-05-10T20:22:49.435Z,38.58
2019-05-10T20:25:18.310Z,34.75
2019-05-10T20:27:47.108Z,33.48
2019-05-10T20:30:17.588Z,40.50
2019-05-10T20:32:46.436Z,34.20
2019-05-10T20:35:15.329Z,42.98
2019-05-10T20:37:44.066Z,35.90
2019-05-10T20:40:12.948Z,45.08
2019-05-10T20:42:41.762Z,37.83
2019-05-10T20:45:10.776Z,36.35
2019-05-10T20:47:39.506Z,38.73
2019-05-10T20:50:08.420Z,40.17
2019-05-10T20:52:37.315Z,43.83
2019-05-10T20:55:07.036Z,31.48
2019-05-10T20:57:35.838Z,27.73
2019-05-10T21:00:06.170Z,28.52
2019-05-10T21:02:34.896Z,28.40
2019-05-10T21:05:04.561Z,27.70
2019-05-10T21:07:33.319Z,41.37
2019-05-10T21:10:02.041Z,39.90
2019-05-10T21:12:30.827Z,35.35
2019-05-10T21:14:59.557Z,27.30
2019-05-10T21:17:28.403Z,30.15
2019-05-10T21:19:57.220Z,31.17
2019-05-10T21:22:25.994Z,38.42
2019-05-10T21:24:54.718Z,32.67
2019-05-10T21:27:23.532Z,28.83
2019-05-10T21:29:52.277Z,28.47
2019-05-10T21:32:20.993Z,29.57
2019-05-10T21:34:49.724Z,30.43
2019-05-10T21:37:18.452Z,31.80
2019-05-10T21:39:47.209Z,28.50
2019-05-10T21:42:15.988Z,33.38
2019-05-10T21:44:44.716Z,29.25
2019-05-10T21:47:13.447Z,23.10
2019-05-10T21:49:42.258Z,24.55
2019-05-10T21:52:11.084Z,29.32
2019-05-10T21:54:39.796Z,49.25
2019-05-10T21:57:08.551Z,39.53
2019-05-10T21:59:37.252Z,56.25
2019-05-10T22:02:06.255Z,60.60
2019-05-10T22:04:34.980Z,51.48
2019-05-10T22:07:03.845Z,46.50
2019-05-10T22:09:32.686Z,45.00
2019-05-10T22:12:01.472Z,39.78
2019-05-10T22:14:30.186Z,36.48
2019-05-10T22:16:58.928Z,36.28
2019-05-10T22:19:27.722Z,40.85
2019-05-10T22:21:56.539Z,40.85
2019-05-10T22:24:25.264Z,36.15
2019-05-10T22:26:53.992Z,37.98
2019-05-10T22:29:22.807Z,41.25
2019-05-10T22:31:51.692Z,37.03
2019-05-10T22:34:20.488Z,40.85
2019-05-10T22:36:49.209Z,45.33
2019-05-10T22:39:17.936Z,46.73
2019-05-10T22:41:46.730Z,39.98
2019-05-10T22:44:15.453Z,40.33
2019-05-10T22:46:44.196Z,38.90
2019-05-10T22:49:12.923Z,44.80
2019-05-10T22:51:41.698Z,49.53
2019-05-10T22:54:10.404Z,47.33
2019-05-10T22:56:39.233Z,44.70
2019-05-10T22:59:08.004Z,38.85
2019-05-10T23:01:36.747Z,32.20
2019-05-10T23:04:05.475Z,39.08
2019-05-10T23:06:34.268Z,29.42
2019-05-10T23:09:04.530Z,32.10
2019-05-10T23:11:33.248Z,27.80
2019-05-10T23:14:02.053Z,28.35
2019-05-10T23:16:30.788Z,25.60
2019-05-10T23:18:59.588Z,23.65
2019-05-10T23:21:28.501Z,26.73
2019-05-10T23:23:57.262Z,27.73
2019-05-10T23:26:26.000Z,22.10
2019-05-10T23:28:54.772Z,20.43
2019-05-10T23:31:23.562Z,20.77
2019-05-10T23:33:52.285Z,22.95
2019-05-10T23:36:21.012Z,19.45
2019-05-10T23:38:52.277Z,21.27
2019-05-10T23:41:20.160Z,17.57
2019-05-10T23:43:48.883Z,21.93
2019-05-10T23:46:17.608Z,17.80
2019-05-10T23:48:46.505Z,20.60
2019-05-10T23:51:15.231Z,22.98
2019-05-10T23:53:43.954Z,19.30
2019-05-10T23:56:12.692Z,17.35
2019-05-10T23:58:41.427Z,21.17
